createdAt,value
2018-09-03T00:00:58.136Z,2.43
2018-09-03T00:03:26.932Z,2.90
2018-09-03T00:05:55.692Z,2.60
2018-09-03T00:08:24.458Z,2.70
2018-09-03T00:10:53.271Z,2.40
2018-09-03T00:13:22.044Z,2.40
2018-09-03T00:15:50.438Z,2.87
2018-09-03T00:18:19.219Z,2.50
2018-09-03T00:20:47.964Z,2.57
2018-09-03T00:23:16.743Z,2.87
2018-09-03T00:25:45.571Z,3.10
2018-09-03T00:28:14.345Z,2.70
2018-09-03T00:30:42.790Z,2.53
2018-09-03T00:34:20.525Z,2.90
2018-09-03T00:36:54.152Z,2.40
2018-09-03T00:39:27.924Z,2.90
2018-09-03T00:42:02.054Z,2.70
2018-09-03T00:44:36.096Z,2.70
2018-09-03T00:47:06.765Z,2.77
2018-09-03T00:49:35.212Z,2.47
2018-09-03T00:52:04.107Z,2.90
2018-09-03T00:54:33.583Z,2.67
2018-09-03T00:57:01.993Z,2.50
2018-09-03T00:59:30.759Z,2.70
2018-09-03T01:01:59.504Z,2.47
2018-09-03T01:04:28.244Z,2.50
2018-09-03T01:06:57.132Z,2.47
2018-09-03T01:09:25.924Z,2.70
2018-09-03T01:11:54.361Z,2.73
2018-09-03T01:14:22.741Z,2.80
2018-09-03T01:16:51.151Z,2.40
2018-09-03T01:19:19.948Z,2.90
2018-09-03T01:21:48.436Z,2.27
2018-09-03T01:24:17.262Z,2.50
2018-09-03T01:26:46.041Z,2.43
2018-09-03T01:29:14.861Z,2.80
2018-09-03T01:31:43.590Z,2.87
2018-09-03T01:34:12.479Z,2.90
2018-09-03T01:36:40.852Z,2.80
2018-09-03T01:39:09.751Z,3.13
2018-09-03T01:41:38.135Z,2.97
2018-09-03T01:44:06.951Z,2.73
2018-09-03T01:46:35.736Z,3.17
2018-09-03T01:49:04.572Z,2.87
2018-09-03T01:51:33.381Z,2.90
2018-09-03T01:54:01.790Z,2.70
2018-09-03T01:56:30.590Z,3.00
2018-09-03T01:58:58.950Z,2.77
2018-09-03T02:01:27.879Z,2.83
2018-09-03T02:03:56.672Z,2.90
2018-09-03T02:06:25.532Z,3.37
2018-09-03T02:08:53.911Z,3.27
2018-09-03T02:11:22.446Z,3.17
2018-09-03T02:13:51.387Z,2.83
2018-09-03T02:16:20.130Z,3.20
2018-09-03T02:18:48.915Z,3.30
2018-09-03T02:21:17.408Z,3.37
2018-09-03T02:23:46.218Z,3.57
2018-09-03T02:26:14.677Z,3.20
2018-09-03T02:28:43.122Z,3.13
2018-09-03T02:31:12.983Z,3.17
2018-09-03T02:33:41.798Z,3.30
2018-09-03T02:36:10.600Z,3.20
2018-09-03T02:38:39.397Z,3.33
2018-09-03T02:41:08.202Z,3.40
2018-09-03T02:43:36.648Z,3.17
2018-09-03T02:46:05.181Z,3.77
2018-09-03T02:48:34.067Z,3.17
2018-09-03T02:51:02.908Z,4.13
2018-09-03T02:53:31.774Z,3.70
2018-09-03T02:56:00.596Z,3.07
2018-09-03T02:58:29.401Z,3.43
2018-09-03T03:00:57.846Z,3.40
2018-09-03T03:03:26.640Z,3.60
2018-09-03T03:05:55.466Z,2.97
2018-09-03T03:08:23.820Z,3.07
2018-09-03T03:10:53.073Z,3.57
2018-09-03T03:13:21.921Z,3.00
2018-09-03T03:15:50.710Z,3.80
2018-09-03T03:18:19.556Z,3.27
2018-09-03T03:20:48.015Z,3.40
2018-09-03T03:23:16.438Z,3.53
2018-09-03T03:25:44.866Z,3.50
2018-09-03T03:28:13.661Z,3.90
2018-09-03T03:30:42.463Z,3.07
2018-09-03T03:33:11.292Z,3.60
2018-09-03T03:35:39.775Z,3.60
2018-09-03T03:38:08.210Z,3.53
2018-09-03T03:40:36.605Z,3.60
2018-09-03T03:43:05.430Z,3.87
2018-09-03T03:45:34.208Z,3.90
2018-09-03T03:48:02.962Z,3.73
2018-09-03T03:50:31.833Z,4.60
2018-09-03T03:53:00.259Z,4.30
2018-09-03T03:55:29.160Z,4.20
2018-09-03T03:57:57.584Z,4.03
2018-09-03T04:00:26.404Z,4.10
2018-09-03T04:02:54.778Z,4.07
2018-09-03T04:05:23.618Z,4.23
2018-09-03T04:07:52.006Z,4.03
2018-09-03T04:10:20.796Z,4.03
2018-09-03T04:12:55.121Z,4.00
2018-09-03T04:15:24.102Z,4.00
2018-09-03T04:17:52.874Z,4.30
2018-09-03T04:20:21.696Z,4.40
2018-09-03T04:22:50.552Z,4.73
2018-09-03T04:25:19.315Z,3.90
2018-09-03T04:27:47.752Z,4.23
2018-09-03T04:30:16.241Z,4.33
2018-09-03T04:32:45.086Z,4.50
2018-09-03T04:35:14.024Z,4.53
2018-09-03T04:37:42.849Z,4.27
2018-09-03T04:40:11.685Z,4.67
2018-09-03T04:42:40.421Z,4.43
2018-09-03T04:45:09.219Z,4.63
2018-09-03T04:47:38.106Z,5.33
2018-09-03T04:50:06.981Z,4.93
2018-09-03T04:52:35.364Z,4.87
2018-09-03T04:55:04.257Z,4.87
2018-09-03T04:57:33.163Z,5.07
2018-09-03T05:00:01.571Z,4.87
2018-09-03T05:02:30.400Z,5.17
2018-09-03T05:04:59.233Z,5.17
2018-09-03T05:07:28.048Z,5.13
2018-09-03T05:09:56.907Z,5.30
2018-09-03T05:12:25.357Z,5.30
2018-09-03T05:14:54.159Z,5.23
2018-09-03T05:17:22.566Z,5.03
2018-09-03T05:19:50.962Z,5.00
2018-09-03T05:22:19.373Z,5.53
2018-09-03T05:24:47.769Z,4.60
2018-09-03T05:27:16.593Z,5.90
2018-09-03T05:29:45.055Z,5.63
2018-09-03T05:32:13.448Z,6.40
2018-09-03T05:34:41.878Z,5.83
2018-09-03T05:37:10.728Z,5.67
2018-09-03T05:39:39.157Z,6.13
2018-09-03T05:42:07.581Z,6.43
2018-09-03T05:44:36.021Z,5.83
2018-09-03T05:47:04.629Z,6.23
2018-09-03T05:49:33.385Z,6.30
2018-09-03T05:52:01.810Z,6.27
2018-09-03T05:54:30.628Z,6.40
2018-09-03T05:56:59.030Z,6.57
2018-09-03T05:59:27.438Z,6.83
2018-09-03T06:01:56.614Z,6.33
2018-09-03T06:04:25.536Z,6.57
2018-09-03T06:06:53.925Z,6.07
2018-09-03T06:09:22.712Z,6.13
2018-09-03T06:11:51.495Z,6.43
2018-09-03T06:14:20.348Z,6.57
2018-09-03T06:16:48.741Z,6.07
2018-09-03T06:19:17.169Z,6.87
2018-09-03T06:21:45.603Z,6.10
2018-09-03T06:24:13.989Z,6.57
2018-09-03T06:26:42.443Z,6.57
2018-09-03T06:29:11.219Z,7.33
2018-09-03T06:31:39.618Z,6.70
2018-09-03T06:34:08.460Z,6.50
2018-09-03T06:36:36.885Z,6.30
2018-09-03T06:39:06.871Z,6.03
2018-09-03T06:41:35.616Z,6.33
2018-09-03T06:44:04.439Z,7.73
2018-09-03T06:46:33.250Z,6.60
2018-09-03T06:49:01.650Z,6.90
2018-09-03T06:51:30.493Z,7.13
2018-09-03T06:53:58.965Z,6.93
2018-09-03T06:56:27.773Z,6.73
2018-09-03T06:58:56.552Z,7.17
2018-09-03T07:01:26.381Z,7.00
2018-09-03T07:03:54.820Z,6.97
2018-09-03T07:06:23.187Z,7.30
2018-09-03T07:08:52.003Z,6.80
2018-09-03T07:11:20.862Z,7.47
2018-09-03T07:13:49.713Z,6.90
2018-09-03T07:16:18.479Z,8.10
2018-09-03T07:18:47.487Z,7.30
2018-09-03T07:21:16.711Z,7.00
2018-09-03T07:23:45.158Z,7.67
2018-09-03T07:26:13.515Z,7.70
2018-09-03T07:28:42.400Z,7.17
2018-09-03T07:31:11.224Z,7.33
2018-09-03T07:33:39.702Z,7.17
2018-09-03T07:36:08.511Z,8.10
2018-09-03T07:38:37.348Z,7.47
2018-09-03T07:41:05.747Z,7.43
2018-09-03T07:43:34.568Z,8.23
2018-09-03T07:46:03.387Z,7.20
2018-09-03T07:48:32.223Z,7.67
2018-09-03T07:51:01.074Z,7.23
2018-09-03T07:53:29.869Z,7.23
2018-09-03T07:55:58.304Z,7.23
2018-09-03T07:58:27.119Z,7.67
2018-09-03T08:00:56.003Z,8.27
2018-09-03T08:03:24.406Z,7.37
2018-09-03T08:05:52.855Z,7.50
2018-09-03T08:08:22.471Z,7.50
2018-09-03T08:10:51.259Z,7.37
2018-09-03T08:13:25.193Z,7.87
2018-09-03T08:15:53.589Z,7.50
2018-09-03T08:18:22.011Z,7.60
2018-09-03T08:20:50.834Z,7.57
2018-09-03T08:23:19.287Z,7.50
2018-09-03T08:25:47.660Z,7.63
2018-09-03T08:28:16.827Z,7.33
2018-09-03T08:30:47.052Z,7.17
2018-09-03T08:33:15.881Z,21.17
2018-09-03T08:35:44.322Z,7.17
2018-09-03T08:38:13.122Z,8.23
2018-09-03T08:40:41.535Z,8.00
2018-09-03T08:43:10.335Z,7.47
2018-09-03T08:45:38.776Z,7.70
2018-09-03T08:48:07.571Z,8.10
2018-09-03T08:50:38.122Z,7.80
2018-09-03T08:53:06.521Z,7.80
2018-09-03T08:55:35.321Z,7.77
2018-09-03T08:58:03.784Z,8.50
2018-09-03T09:00:32.600Z,7.87
2018-09-03T09:03:01.398Z,8.13
2018-09-03T09:05:29.843Z,9.63
2018-09-03T09:07:58.659Z,9.60
2018-09-03T09:10:27.454Z,9.57
2018-09-03T09:12:55.869Z,10.43
2018-09-03T09:15:24.613Z,9.63
2018-09-03T09:17:53.455Z,8.67
2018-09-03T09:20:21.853Z,9.80
2018-09-03T09:22:50.632Z,10.53
2018-09-03T09:25:19.772Z,10.27
2018-09-03T09:27:48.522Z,9.30
2018-09-03T09:30:16.944Z,10.03
2018-09-03T09:32:45.739Z,10.17
2018-09-03T09:35:14.508Z,9.77
2018-09-03T09:37:43.386Z,8.63
2018-09-03T09:40:11.799Z,9.70
2018-09-03T09:42:41.262Z,8.70
2018-09-03T09:45:11.239Z,9.33
2018-09-03T09:47:39.645Z,10.33
2018-09-03T09:50:22.457Z,10.63
2018-09-03T09:52:51.268Z,10.60
2018-09-03T09:55:20.119Z,11.00
2018-09-03T09:57:48.907Z,10.90
2018-09-03T10:00:22.813Z,10.40
2018-09-03T10:02:51.611Z,10.87
2018-09-03T10:05:20.407Z,10.23
2018-09-03T10:07:49.254Z,11.43
2018-09-03T10:10:17.704Z,11.33
2018-09-03T10:12:46.104Z,11.23
2018-09-03T10:15:14.918Z,11.60
2018-09-03T10:17:43.689Z,11.57
2018-09-03T10:20:12.911Z,12.20
2018-09-03T10:22:41.693Z,12.77
2018-09-03T10:25:10.098Z,12.27
2018-09-03T10:27:38.938Z,13.27
2018-09-03T10:30:07.728Z,13.07
2018-09-03T10:32:36.611Z,14.10
2018-09-03T10:35:05.469Z,13.77
2018-09-03T10:37:34.628Z,14.03
2018-09-03T10:40:03.536Z,13.40
2018-09-03T10:42:32.358Z,13.90
2018-09-03T10:45:00.842Z,13.10
2018-09-03T10:47:29.275Z,13.17
2018-09-03T10:49:58.091Z,14.17
2018-09-03T10:52:26.985Z,13.33
2018-09-03T10:54:55.428Z,13.67
2018-09-03T10:57:23.858Z,15.27
2018-09-03T10:59:52.726Z,15.33
2018-09-03T11:02:21.521Z,14.30
2018-09-03T11:04:50.299Z,15.10
2018-09-03T11:07:19.123Z,15.13
2018-09-03T11:09:47.950Z,15.20
2018-09-03T11:12:16.845Z,15.43
2018-09-03T11:14:45.630Z,14.80
2018-09-03T11:17:14.501Z,15.00
2018-09-03T11:19:47.682Z,15.90
2018-09-03T11:22:16.129Z,14.93
2018-09-03T11:24:44.622Z,16.60
2018-09-03T11:27:13.436Z,15.83
2018-09-03T11:29:42.316Z,14.93
2018-09-03T11:32:11.105Z,14.97
2018-09-03T11:34:39.894Z,14.90
2018-09-03T11:37:08.878Z,15.20
2018-09-03T11:39:37.724Z,14.40
2018-09-03T11:42:06.553Z,14.20
2018-09-03T11:44:34.927Z,13.67
2018-09-03T11:47:03.520Z,14.57
2018-09-03T11:49:32.242Z,14.50
2018-09-03T11:52:01.069Z,14.47
2018-09-03T11:54:29.935Z,14.37
2018-09-03T11:56:58.693Z,14.93
2018-09-03T11:59:27.179Z,14.77
2018-09-03T12:01:55.646Z,14.37
2018-09-03T12:04:24.512Z,13.93
2018-09-03T12:06:53.369Z,14.70
2018-09-03T12:09:22.282Z,13.50
2018-09-03T12:11:51.074Z,14.07
2018-09-03T12:14:30.574Z,14.27
2018-09-03T12:16:59.791Z,13.57
2018-09-03T12:19:28.171Z,13.43
2018-09-03T12:21:56.996Z,13.80
2018-09-03T12:24:25.826Z,13.13
2018-09-03T12:26:54.693Z,13.70
2018-09-03T12:29:23.483Z,13.83
2018-09-03T12:31:51.940Z,13.53
2018-09-03T12:34:20.748Z,13.47
2018-09-03T12:36:49.600Z,13.33
2018-09-03T12:39:18.471Z,12.93
2018-09-03T12:41:46.930Z,13.70
2018-09-03T12:44:15.334Z,12.47
2018-09-03T12:46:44.109Z,12.50
2018-09-03T12:49:12.945Z,12.60
2018-09-03T12:51:41.699Z,12.83
2018-09-03T12:54:10.149Z,12.40
2018-09-03T12:56:39.003Z,12.70
2018-09-03T12:59:07.779Z,12.67
2018-09-03T13:01:36.574Z,12.20
2018-09-03T13:04:05.487Z,12.17
2018-09-03T13:06:34.285Z,12.10
2018-09-03T13:09:03.154Z,12.03
2018-09-03T13:11:31.973Z,11.87
2018-09-03T13:14:00.730Z,11.90
2018-09-03T13:16:29.554Z,11.93
2018-09-03T13:18:58.425Z,11.73
2018-09-03T13:21:27.657Z,11.90
2018-09-03T13:23:56.511Z,11.60
2018-09-03T13:26:25.338Z,11.70
2018-09-03T13:28:54.167Z,11.37
2018-09-03T13:31:22.989Z,12.20
2018-09-03T13:33:51.488Z,11.07
2018-09-03T13:36:19.910Z,11.83
2018-09-03T13:38:48.784Z,11.37
2018-09-03T13:41:20.860Z,12.10
2018-09-03T13:43:50.024Z,11.73
2018-09-03T13:46:18.446Z,11.47
2018-09-03T13:48:47.227Z,11.73
2018-09-03T13:51:15.738Z,11.57
2018-09-03T13:53:44.547Z,12.47
2018-09-03T13:56:12.979Z,11.07
2018-09-03T13:58:41.372Z,11.70
2018-09-03T14:01:09.815Z,11.50
2018-09-03T14:03:38.239Z,11.67
2018-09-03T14:06:07.272Z,11.20
2018-09-03T14:08:36.043Z,11.57
2018-09-03T14:11:04.892Z,11.53
2018-09-03T14:13:33.352Z,12.33
2018-09-03T14:16:02.176Z,12.17
2018-09-03T14:18:30.975Z,11.93
2018-09-03T14:20:59.803Z,11.37
2018-09-03T14:23:28.689Z,11.57
2018-09-03T14:25:57.083Z,11.33
2018-09-03T14:32:20.320Z,11.27
2018-09-03T14:34:49.193Z,11.47
2018-09-03T14:37:18.016Z,12.07
2018-09-03T14:39:46.853Z,11.40
2018-09-03T14:42:15.641Z,12.03
2018-09-03T14:44:44.072Z,11.97
2018-09-03T14:47:12.853Z,11.57
2018-09-03T14:49:41.417Z,11.50
2018-09-03T14:52:10.279Z,12.50
2018-09-03T14:54:38.666Z,11.97
2018-09-03T14:57:07.534Z,12.23
2018-09-03T14:59:36.269Z,12.63
2018-09-03T15:02:05.269Z,12.33
2018-09-03T15:04:34.143Z,11.43
2018-09-03T15:07:02.946Z,11.80
2018-09-03T15:09:31.773Z,11.83
2018-09-03T15:12:00.608Z,11.63
2018-09-03T15:14:29.451Z,11.70
2018-09-03T15:16:58.639Z,11.73
2018-09-03T15:19:27.438Z,12.00
2018-09-03T15:21:56.215Z,10.93
2018-09-03T15:24:24.597Z,11.05
2018-09-03T15:26:53.364Z,11.57
2018-09-03T15:29:22.217Z,11.15
2018-09-03T15:31:51.129Z,11.73
2018-09-03T15:34:19.517Z,10.95
2018-09-03T15:36:48.412Z,11.18
2018-09-03T15:39:17.345Z,10.98
2018-09-03T15:41:46.164Z,11.20
2018-09-03T15:44:14.981Z,10.78
2018-09-03T15:46:43.786Z,10.72
2018-09-03T15:49:12.605Z,10.65
2018-09-03T15:51:41.452Z,10.45
2018-09-03T15:54:10.365Z,10.13
2018-09-03T15:56:39.116Z,9.45
2018-09-03T15:59:07.889Z,10.40
2018-09-03T16:01:37.049Z,9.55
2018-09-03T16:04:05.892Z,11.12
2018-09-03T16:06:34.830Z,10.65
2018-09-03T16:09:03.922Z,11.38
2018-09-03T16:11:32.696Z,11.18
2018-09-03T16:14:01.919Z,11.20
2018-09-03T16:16:32.013Z,10.80
2018-09-03T16:19:00.780Z,11.22
2018-09-03T16:21:29.574Z,9.90
2018-09-03T16:23:58.437Z,10.75
2018-09-03T16:26:26.843Z,10.10
2018-09-03T16:28:55.664Z,10.85
2018-09-03T16:31:24.501Z,10.98
2018-09-03T16:33:53.448Z,10.63
2018-09-03T16:36:22.278Z,10.98
2018-09-03T16:38:51.140Z,10.60
2018-09-03T16:41:19.875Z,11.15
2018-09-03T16:43:48.741Z,11.13
2018-09-03T16:46:17.569Z,10.73
2018-09-03T16:48:46.401Z,11.70
2018-09-03T16:51:15.230Z,10.67
2018-09-03T16:53:44.070Z,10.47
2018-09-03T16:56:12.885Z,10.57
2018-09-03T16:58:41.690Z,11.00
2018-09-03T17:01:10.675Z,11.00
2018-09-03T17:03:39.002Z,10.70
2018-09-03T17:06:07.825Z,11.07
2018-09-03T17:08:36.651Z,10.90
2018-09-03T17:11:05.512Z,11.13
2018-09-03T17:13:34.413Z,11.10
2018-09-03T17:16:03.233Z,11.33
2018-09-03T17:18:32.088Z,10.80
2018-09-03T17:21:00.937Z,11.20
2018-09-03T17:23:30.118Z,11.17
2018-09-03T17:25:58.532Z,10.00
2018-09-03T17:28:27.346Z,10.43
2018-09-03T17:30:55.772Z,10.33
2018-09-03T17:33:24.616Z,11.00
2018-09-03T17:35:53.046Z,11.20
2018-09-03T17:38:21.847Z,10.30
2018-09-03T17:40:50.381Z,9.97
2018-09-03T17:43:19.212Z,11.10
2018-09-03T17:45:48.034Z,10.43
2018-09-03T17:48:16.507Z,10.20
2018-09-03T17:50:45.372Z,10.80
2018-09-03T17:53:14.181Z,11.40
2018-09-03T17:55:43.010Z,10.47
2018-09-03T17:58:11.431Z,11.23
2018-09-03T18:00:39.931Z,10.90
2018-09-03T18:03:08.433Z,11.07
2018-09-03T18:05:38.201Z,11.70
2018-09-03T18:08:07.141Z,11.53
2018-09-03T18:10:35.728Z,10.20
2018-09-03T18:13:04.581Z,11.07
2018-09-03T18:15:32.970Z,11.00
2018-09-03T18:18:01.448Z,10.37
2018-09-03T18:20:30.217Z,10.50
2018-09-03T18:22:58.648Z,11.20
2018-09-03T18:25:27.093Z,9.90
2018-09-03T18:27:55.544Z,10.90
2018-09-03T18:30:24.027Z,10.80
2018-09-03T18:32:52.501Z,10.20
2018-09-03T18:35:21.307Z,10.43
2018-09-03T18:37:50.090Z,11.00
2018-09-03T18:40:18.589Z,10.87
2018-09-03T18:42:47.396Z,10.63
2018-09-03T18:45:16.354Z,9.93
2018-09-03T18:47:45.191Z,9.40
2018-09-03T18:50:15.048Z,11.37
2018-09-03T18:52:43.533Z,10.53
2018-09-03T18:55:12.344Z,10.23
2018-09-03T18:57:41.157Z,11.03
2018-09-03T19:00:10.028Z,11.00
2018-09-03T19:02:38.428Z,10.60
2018-09-03T19:05:06.855Z,10.17
2018-09-03T19:07:36.460Z,11.67
2018-09-03T19:10:05.349Z,11.27
2018-09-03T19:12:34.170Z,10.57
2018-09-03T19:15:02.955Z,11.53
2018-09-03T19:17:32.324Z,11.10
2018-09-03T19:20:00.774Z,11.43
2018-09-03T19:22:29.583Z,11.20
2018-09-03T19:24:58.483Z,12.47
2018-09-03T19:27:26.964Z,12.03
2018-09-03T19:29:55.847Z,12.53
2018-09-03T19:32:24.240Z,12.97
2018-09-03T19:34:52.634Z,13.47
2018-09-03T19:37:21.093Z,14.80
2018-09-03T19:39:49.479Z,15.23
2018-09-03T19:42:18.277Z,16.43
2018-09-03T19:44:47.169Z,17.13
2018-09-03T19:47:15.923Z,17.40
2018-09-03T19:49:44.352Z,15.90
2018-09-03T19:52:13.162Z,16.40
2018-09-03T19:54:41.968Z,16.97
2018-09-03T19:57:10.840Z,17.43
2018-09-03T19:59:39.647Z,16.87
2018-09-03T20:02:08.498Z,16.77
2018-09-03T20:04:36.898Z,15.90
2018-09-03T20:07:05.363Z,15.83
2018-09-03T20:09:34.147Z,16.90
2018-09-03T20:12:02.641Z,15.30
2018-09-03T20:14:31.118Z,17.13
2018-09-03T20:17:00.022Z,15.60
2018-09-03T20:19:28.833Z,15.93
2018-09-03T20:21:57.235Z,16.90
2018-09-03T20:24:26.108Z,15.80
2018-09-03T20:26:54.876Z,17.73
2018-09-03T20:29:23.394Z,17.43
2018-09-03T20:31:51.777Z,18.13
2018-09-03T20:34:20.570Z,18.00
2018-09-03T20:36:49.728Z,17.40
2018-09-03T20:39:18.104Z,18.07
2018-09-03T20:41:46.494Z,16.50
2018-09-03T20:44:15.073Z,17.57
2018-09-03T20:46:43.885Z,18.60
2018-09-03T20:49:12.686Z,18.57
2018-09-03T20:51:41.149Z,19.90
2018-09-03T20:54:10.008Z,20.43
2018-09-03T20:56:38.826Z,21.30
2018-09-03T20:59:07.265Z,18.87
2018-09-03T21:01:36.237Z,19.50
2018-09-03T21:04:05.097Z,20.47
2018-09-03T21:06:34.350Z,23.63
2018-09-03T21:09:03.219Z,23.63
2018-09-03T21:11:32.042Z,23.23
2018-09-03T21:14:00.731Z,23.13
2018-09-03T21:16:29.163Z,22.40
2018-09-03T21:18:58.038Z,22.87
2018-09-03T21:21:39.687Z,20.27
2018-09-03T21:24:08.467Z,20.33
2018-09-03T21:26:36.881Z,19.10
2018-09-03T21:29:05.787Z,19.63
2018-09-03T21:31:37.876Z,22.43
2018-09-03T21:34:06.743Z,20.57
2018-09-03T21:36:35.156Z,21.70
2018-09-03T21:39:04.304Z,21.30
2018-09-03T21:41:33.569Z,22.07
2018-09-03T21:44:02.355Z,21.83
2018-09-03T21:46:31.219Z,22.07
2018-09-03T21:49:00.041Z,20.60
2018-09-03T21:51:28.875Z,19.43
2018-09-03T21:53:57.678Z,19.80
2018-09-03T21:56:26.452Z,22.50
2018-09-03T21:58:55.285Z,21.37
2018-09-03T22:01:24.066Z,21.77
2018-09-03T22:03:52.487Z,21.63
2018-09-03T22:06:21.308Z,21.33
2018-09-03T22:08:49.719Z,23.70
2018-09-03T22:11:18.206Z,23.77
2018-09-03T22:13:46.637Z,22.67
2018-09-03T22:16:15.038Z,22.47
2018-09-03T22:18:43.885Z,24.97
2018-09-03T22:21:12.671Z,23.53
2018-09-03T22:23:41.546Z,24.93
2018-09-03T22:26:10.837Z,25.03
2018-09-03T22:28:39.624Z,22.33
2018-09-03T22:31:08.399Z,24.07
2018-09-03T22:33:37.251Z,23.83
2018-09-03T22:36:06.283Z,22.80
2018-09-03T22:38:35.099Z,23.50
2018-09-03T22:41:03.611Z,25.50
2018-09-03T22:43:32.456Z,23.53
2018-09-03T22:46:01.400Z,26.57
2018-09-03T22:48:30.222Z,24.33
2018-09-03T22:50:58.991Z,22.50
2018-09-03T22:53:27.806Z,24.03
2018-09-03T22:55:56.207Z,21.77
2018-09-03T22:58:25.035Z,23.97
2018-09-03T23:00:53.403Z,25.20
2018-09-03T23:03:22.230Z,24.63
2018-09-03T23:05:51.016Z,21.47
2018-09-03T23:08:19.476Z,24.20
2018-09-03T23:10:48.269Z,25.07
2018-09-03T23:13:17.038Z,26.47
2018-09-03T23:15:52.989Z,24.77
2018-09-03T23:18:22.837Z,24.10
2018-09-03T23:20:51.664Z,26.93
2018-09-03T23:23:20.119Z,23.83
2018-09-03T23:25:49.000Z,26.20
2018-09-03T23:28:17.883Z,25.63
2018-09-03T23:30:46.687Z,25.23
2018-09-03T23:33:15.074Z,24.73
2018-09-03T23:35:43.861Z,28.47
2018-09-03T23:38:12.685Z,27.23
2018-09-03T23:40:41.107Z,26.40
2018-09-03T23:43:09.962Z,25.17
2018-09-03T23:45:38.748Z,27.43
2018-09-03T23:48:07.209Z,27.73
2018-09-03T23:50:35.673Z,26.63
2018-09-03T23:53:04.195Z,25.70
2018-09-03T23:55:32.679Z,27.37
2018-09-03T23:58:01.477Z,27.63
